Terminal Aerodrome Forecast
Issued by NWS Chicago, IL

Home | Current Version | Previous Version | Graphics & Text | Print | Product List | Glossary On
Versions: 1 2 3 4 5 6 7 8 9 10 11 12 13 14 15 16 17 18 19 20 21 22 23 24
000
FTUS43 KLOT 301124
TAFRFD
TAF
KRFD 301124Z 3012/0112 03011KT P6SM VCSH SCT009 BKN016
      TEMPO 3012/3013 BKN009
     FM301500 04013G20KT P6SM VCSH SCT012 BKN020
     FM010000 04010KT P6SM OVC015
     FM010400 02008KT P6SM VCSH OVC010=

USA.gov is the U.S. government's official web portal to all federal, state and local government web resources and services.